Time;durP1;ratioP1;P1;durP2;ratioP2;P2;SDS_P1;SDS_P2;PMS_P1;PMS_P2;Temp;Humidity;BMP_temperature;BMP_pressure;BME280_temperature;BME280_humidity;BME280_pressure;Samples;Min_cycle;Max_cycle;Signal;HPM_P1;HPM_P2
2022/03/20 00:00:34;;;;;;;13.15;3.63;;;7.30;88.90;;;;;;5068414;28;20017;-69
2022/03/20 00:03:06;;;;;;;12.75;3.47;;;7.30;89.10;;;;;;5067923;28;20021;-68
2022/03/20 00:05:34;;;;;;;14.88;3.95;;;7.30;89.30;;;;;;5051660;28;20021;-68
2022/03/20 00:08:00;;;;;;;16.35;4.13;;;7.30;89.30;;;;;;5068473;28;20054;-70
2022/03/20 00:10:26;;;;;;;12.02;3.45;;;7.20;89.40;;;;;;5069298;28;20451;-68
2022/03/20 00:12:52;;;;;;;15.18;3.83;;;7.20;89.60;;;;;;5081492;28;20030;-69
2022/03/20 00:15:18;;;;;;;12.75;3.17;;;7.20;89.90;;;;;;5088012;28;20024;-71
2022/03/20 00:17:44;;;;;;;16.05;3.58;;;7.20;90.00;;;;;;5083169;28;20025;-68
2022/03/20 00:20:10;;;;;;;16.15;3.30;;;7.10;90.00;;;;;;5086322;28;20036;-68
2022/03/20 00:22:37;;;;;;;14.50;3.25;;;7.10;90.10;;;;;;5086019;28;20212;-70
2022/03/20 00:25:04;;;;;;;15.57;2.80;;;7.10;90.20;;;;;;5085233;28;20024;-70
2022/03/20 00:27:31;;;;;;;14.43;3.03;;;7.10;90.30;;;;;;5085827;28;20082;-69
2022/03/20 00:29:57;;;;;;;16.05;3.63;;;7.10;90.30;;;;;;5084603;28;20027;-69
2022/03/20 00:32:22;;;;;;;17.33;3.35;;;7.10;90.40;;;;;;5084896;28;20016;-69
2022/03/20 00:34:48;;;;;;;16.52;3.45;;;7.00;90.40;;;;;;5085477;28;20042;-70
2022/03/20 00:37:14;;;;;;;11.80;2.67;;;7.10;90.50;;;;;;5085098;28;20088;-71
2022/03/20 00:39:39;;;;;;;11.70;3.38;;;7.00;90.50;;;;;;5085867;28;20024;-70
2022/03/20 00:42:05;;;;;;;13.63;2.95;;;7.00;90.70;;;;;;5085814;28;20029;-70
2022/03/20 00:44:31;;;;;;;11.40;3.22;;;6.90;90.80;;;;;;5084655;28;20028;-69
2022/03/20 00:46:57;;;;;;;16.08;3.45;;;6.90;90.90;;;;;;5083980;28;20296;-70
2022/03/20 00:49:23;;;;;;;11.73;2.67;;;6.90;91.10;;;;;;5085712;28;20079;-69
2022/03/20 00:51:48;;;;;;;11.25;3.03;;;6.90;91.20;;;;;;5084142;28;20315;-70
2022/03/20 00:54:14;;;;;;;12.15;2.90;;;6.90;91.30;;;;;;5085495;28;20020;-68
2022/03/20 00:56:40;;;;;;;16.23;3.85;;;6.90;91.40;;;;;;5084263;28;20246;-70
2022/03/20 00:59:05;;;;;;;13.40;2.92;;;6.80;91.50;;;;;;5084409;28;20033;-71
2022/03/20 01:01:32;;;;;;;19.33;3.25;;;6.80;91.70;;;;;;5085650;28;20295;-70
2022/03/20 01:03:57;;;;;;;15.57;3.03;;;6.80;91.70;;;;;;5085510;28;20024;-70
2022/03/20 01:06:23;;;;;;;12.15;2.97;;;6.80;91.90;;;;;;5084833;28;20265;-69
2022/03/20 01:08:49;;;;;;;16.98;3.28;;;6.70;92.00;;;;;;5084831;28;20036;-70
2022/03/20 01:11:16;;;;;;;14.73;3.25;;;6.70;92.10;;;;;;5083815;28;20029;-71
2022/03/20 01:13:42;;;;;;;16.35;4.00;;;6.60;92.20;;;;;;5064153;28;20021;-71
2022/03/20 01:16:08;;;;;;;18.70;3.25;;;6.60;92.30;;;;;;5064765;28;20029;-70
2022/03/20 01:18:34;;;;;;;11.88;3.22;;;6.60;92.50;;;;;;5063822;28;20021;-71
2022/03/20 01:21:00;;;;;;;16.45;3.20;;;6.60;92.60;;;;;;5064668;28;20044;-71
2022/03/20 01:23:26;;;;;;;12.57;3.05;;;6.60;92.60;;;;;;5064841;28;20033;-70
2022/03/20 01:25:52;;;;;;;15.95;3.22;;;6.50;92.80;;;;;;5064655;28;20048;-70
2022/03/20 01:28:19;;;;;;;17.50;3.35;;;6.50;92.90;;;;;;5080138;28;20028;-71
2022/03/20 01:30:45;;;;;;;21.00;3.47;;;6.40;93.00;;;;;;5080182;28;20079;-71
2022/03/20 01:33:11;;;;;;;11.75;3.83;;;6.40;93.10;;;;;;5080076;28;20031;-70
2022/03/20 01:35:36;;;;;;;15.93;3.88;;;6.40;93.20;;;;;;5062877;28;20033;-70
2022/03/20 01:38:03;;;;;;;15.32;3.45;;;6.30;93.30;;;;;;5080281;28;20323;-70
2022/03/20 01:40:29;;;;;;;12.10;3.47;;;6.30;93.50;;;;;;5080063;28;20047;-69
2022/03/20 01:42:54;;;;;;;16.60;3.92;;;6.30;93.60;;;;;;5080048;28;20028;-70
2022/03/20 01:45:23;;;;;;;11.48;4.00;;;6.20;93.70;;;;;;5064434;28;20361;-70
2022/03/20 01:47:49;;;;;;;15.15;3.13;;;6.20;93.80;;;;;;5064236;28;20033;-69
2022/03/20 01:50:17;;;;;;;20.65;3.78;;;6.20;93.90;;;;;;5064449;28;20032;-69
2022/03/20 01:52:45;;;;;;;15.98;3.53;;;6.10;94.00;;;;;;5079234;28;20029;-70
2022/03/20 01:55:11;;;;;;;17.63;3.33;;;6.10;94.10;;;;;;5079443;28;20024;-70
2022/03/20 01:57:39;;;;;;;12.93;3.03;;;6.10;94.20;;;;;;5079975;28;20024;-69
2022/03/20 02:00:06;;;;;;;11.48;3.22;;;6.00;94.20;;;;;;5062500;28;20315;-70
2022/03/20 02:02:32;;;;;;;13.20;3.50;;;6.00;94.30;;;;;;5079624;28;20045;-70
2022/03/20 02:04:58;;;;;;;12.23;2.97;;;5.90;94.30;;;;;;5079191;28;20082;-70
2022/03/20 02:07:25;;;;;;;15.57;3.60;;;5.90;94.30;;;;;;5064237;28;20028;-70
2022/03/20 02:09:51;;;;;;;16.30;3.80;;;5.90;94.40;;;;;;5079300;28;20052;-69
2022/03/20 02:12:17;;;;;;;12.07;3.33;;;5.90;94.60;;;;;;5087475;28;20035;-70
2022/03/20 02:14:43;;;;;;;13.68;3.33;;;5.80;94.60;;;;;;5082761;28;20035;-71
2022/03/20 02:17:10;;;;;;;14.10;3.83;;;5.80;94.70;;;;;;5082607;28;20303;-71
2022/03/20 02:19:38;;;;;;;14.88;3.22;;;5.80;94.80;;;;;;5098108;28;20020;-70
2022/03/20 02:22:04;;;;;;;13.18;3.20;;;5.80;94.90;;;;;;5099838;28;20239;-70
2022/03/20 02:24:38;;;;;;;17.00;3.15;;;5.80;94.90;;;;;;5082904;28;20017;-71
2022/03/20 02:27:09;;;;;;;14.57;3.42;;;5.70;94.90;;;;;;5083494;28;20028;-70
2022/03/20 02:29:36;;;;;;;14.57;2.63;;;5.80;94.90;;;;;;5082794;28;20315;-70
2022/03/20 02:32:04;;;;;;;13.68;3.30;;;5.80;94.90;;;;;;5082007;28;20107;-69
2022/03/20 02:34:31;;;;;;;12.23;2.60;;;5.70;94.90;;;;;;5083223;28;20027;-70
2022/03/20 02:36:57;;;;;;;16.00;3.33;;;5.70;95.00;;;;;;5082643;28;20028;-70
2022/03/20 02:39:24;;;;;;;14.93;3.00;;;5.70;95.10;;;;;;5083137;28;20092;-69
2022/03/20 02:41:51;;;;;;;11.93;2.97;;;5.70;95.20;;;;;;5083441;28;20025;-69
2022/03/20 02:44:17;;;;;;;16.27;2.60;;;5.60;95.20;;;;;;5083727;28;20088;-68
2022/03/20 02:46:43;;;;;;;13.48;2.80;;;5.60;95.30;;;;;;5083523;28;20110;-71
2022/03/20 02:49:10;;;;;;;11.77;2.97;;;5.60;95.20;;;;;;5083698;28;20028;-70
2022/03/20 02:51:36;;;;;;;18.08;3.03;;;5.60;95.70;;;;;;5082285;28;20053;-69
2022/03/20 02:54:03;;;;;;;11.77;2.90;;;5.60;95.40;;;;;;5083644;28;20025;-71
2022/03/20 02:56:29;;;;;;;12.13;3.38;;;5.50;95.40;;;;;;5082100;28;20036;-69
2022/03/20 02:58:56;;;;;;;14.63;3.15;;;5.50;95.40;;;;;;5081915;28;20059;-70
2022/03/20 03:01:21;;;;;;;14.48;2.78;;;5.50;95.40;;;;;;5083253;28;20032;-69
2022/03/20 03:03:47;;;;;;;10.82;2.80;;;5.50;95.40;;;;;;5083502;28;20029;-71
2022/03/20 03:06:13;;;;;;;15.32;3.33;;;5.50;95.30;;;;;;5082062;28;20024;-70
2022/03/20 03:11:24;;;;;;;10.00;2.83;;;5.50;95.30;;;;;;5095436;28;20029;-69
2022/03/20 03:13:50;;;;;;;19.05;3.63;;;5.50;95.30;;;;;;5082157;28;20024;-70
2022/03/20 03:16:17;;;;;;;13.38;3.17;;;5.40;95.30;;;;;;5082751;28;20086;-69
2022/03/20 03:18:45;;;;;;;10.32;2.65;;;5.40;95.30;;;;;;5081630;28;20327;-70
2022/03/20 03:21:12;;;;;;;11.50;2.58;;;5.40;95.30;;;;;;5081842;28;20299;-70
2022/03/20 03:23:38;;;;;;;16.98;3.58;;;5.40;95.30;;;;;;5081655;28;20307;-70
2022/03/20 03:26:04;;;;;;;9.70;2.40;;;5.40;95.40;;;;;;5082173;28;20315;-70
2022/03/20 03:28:38;;;;;;;15.30;3.10;;;5.40;95.40;;;;;;5081434;28;20230;-70
2022/03/20 03:31:07;;;;;;;11.23;2.85;;;5.40;95.40;;;;;;5083057;28;20040;-71
2022/03/20 03:33:34;;;;;;;8.07;2.55;;;5.30;95.40;;;;;;5081674;28;20055;-69
2022/03/20 03:36:01;;;;;;;9.65;3.00;;;5.30;95.50;;;;;;5082681;28;20028;-70
2022/03/20 03:38:31;;;;;;;11.40;2.55;;;5.20;95.50;;;;;;5081528;28;20024;-71
2022/03/20 03:40:57;;;;;;;12.93;2.60;;;5.20;95.60;;;;;;5082457;28;20350;-71
2022/03/20 03:43:24;;;;;;;15.98;2.97;;;5.20;95.70;;;;;;5081786;28;20088;-70
2022/03/20 03:45:50;;;;;;;13.20;2.60;;;5.20;95.70;;;;;;5082014;28;20020;-69
2022/03/20 03:48:16;;;;;;;16.83;3.20;;;5.20;95.60;;;;;;5081787;28;20319;-70
2022/03/20 03:50:44;;;;;;;13.40;2.72;;;5.20;95.50;;;;;;5083067;28;20055;-70
2022/03/20 03:53:09;;;;;;;10.38;2.88;;;5.20;95.50;;;;;;5085140;28;20016;-70
2022/03/20 03:55:36;;;;;;;12.18;3.20;;;5.20;95.50;;;;;;5085470;28;20074;-70
2022/03/20 03:58:02;;;;;;;11.05;2.60;;;5.20;95.50;;;;;;5068542;28;20027;-70
2022/03/20 04:00:32;;;;;;;14.13;2.88;;;5.10;95.50;;;;;;5086519;28;20021;-69
2022/03/20 04:02:59;;;;;;;14.23;2.63;;;5.10;95.50;;;;;;5086167;28;20036;-70
2022/03/20 04:05:24;;;;;;;9.90;2.80;;;5.10;95.50;;;;;;5085133;28;20031;-70
2022/03/20 04:07:50;;;;;;;8.65;2.50;;;5.10;95.50;;;;;;5086686;28;20024;-70
2022/03/20 04:10:17;;;;;;;13.75;2.65;;;5.00;95.60;;;;;;5086390;28;20036;-69
2022/03/20 04:12:44;;;;;;;11.18;3.05;;;5.00;95.70;;;;;;5073740;28;20025;-69
2022/03/20 04:15:11;;;;;;;12.93;2.50;;;5.00;95.90;;;;;;5065127;28;20025;-71
2022/03/20 04:17:37;;;;;;;9.70;2.15;;;4.90;96.20;;;;;;5064976;28;20032;-70
2022/03/20 04:20:04;;;;;;;16.92;2.65;;;4.80;96.40;;;;;;5064781;28;20017;-69
2022/03/20 04:22:30;;;;;;;10.98;2.78;;;4.80;96.50;;;;;;5062782;28;20051;-70
2022/03/20 04:24:56;;;;;;;10.73;2.53;;;4.70;96.70;;;;;;5048284;28;20359;-70
2022/03/20 04:27:23;;;;;;;7.63;2.28;;;4.70;96.70;;;;;;5064873;28;20016;-70
2022/03/20 04:29:49;;;;;;;11.15;2.88;;;4.70;96.70;;;;;;5064462;28;20043;-71
2022/03/20 04:32:15;;;;;;;10.85;3.03;;;4.60;96.80;;;;;;5065761;28;20025;-71
2022/03/20 04:34:41;;;;;;;10.65;2.78;;;4.60;96.90;;;;;;5063999;28;20044;-70
2022/03/20 04:37:09;;;;;;;7.45;2.30;;;4.60;96.90;;;;;;5064607;28;20242;-71
2022/03/20 04:39:36;;;;;;;8.60;2.50;;;4.50;97.00;;;;;;5064702;28;20017;-70
2022/03/20 04:42:03;;;;;;;9.35;2.20;;;4.50;97.00;;;;;;5047552;28;20040;-70
2022/03/20 04:44:28;;;;;;;12.48;2.85;;;4.50;97.10;;;;;;5064821;28;20056;-70
2022/03/20 04:46:54;;;;;;;11.98;2.55;;;4.50;97.10;;;;;;5064239;28;20086;-69
2022/03/20 05:00:23;;;;;;;10.70;2.40;;;4.40;97.80;;;;;;5050426;28;20265;-69
2022/03/20 05:02:49;;;;;;;11.70;2.15;;;4.40;97.60;;;;;;5063371;28;20205;-70
2022/03/20 05:05:16;;;;;;;12.20;2.75;;;4.30;97.70;;;;;;5064876;28;20035;-70
2022/03/20 05:07:42;;;;;;;10.20;2.53;;;4.30;97.70;;;;;;5065093;28;20222;-70
2022/03/20 05:15:40;;;;;;;14.02;2.83;;;4.30;98.10;;;;;;5070630;28;20028;-69
2022/03/20 05:18:07;;;;;;;15.55;2.78;;;4.20;98.20;;;;;;5083707;28;20031;-70
2022/03/20 05:20:34;;;;;;;14.35;2.80;;;4.20;98.30;;;;;;5083961;28;20016;-71
2022/03/20 05:23:00;;;;;;;13.18;2.67;;;4.10;98.40;;;;;;5083358;28;20028;-70
2022/03/20 05:25:28;;;;;;;10.23;2.47;;;4.10;98.50;;;;;;5084633;28;20027;-71
2022/03/20 05:27:55;;;;;;;13.60;3.67;;;4.10;98.80;;;;;;5083675;28;20044;-71
2022/03/20 05:30:21;;;;;;;11.52;2.55;;;4.10;98.80;;;;;;5083660;28;20023;-70
2022/03/20 05:32:48;;;;;;;6.28;2.30;;;4.00;98.90;;;;;;5083271;28;20044;-70
2022/03/20 05:35:17;;;;;;;12.23;2.95;;;4.00;99.10;;;;;;5084395;28;20032;-70
2022/03/20 05:37:44;;;;;;;7.53;2.42;;;4.00;99.30;;;;;;5083425;28;20053;-69
2022/03/20 05:40:12;;;;;;;8.63;2.30;;;3.90;99.40;;;;;;5084620;28;20021;-70
2022/03/20 05:42:38;;;;;;;7.75;2.28;;;3.90;99.50;;;;;;5083337;28;20024;-71
2022/03/20 05:45:04;;;;;;;11.18;2.75;;;3.80;99.60;;;;;;5084717;28;20096;-69
2022/03/20 05:47:31;;;;;;;9.15;2.70;;;3.80;99.80;;;;;;5083289;28;20362;-70
2022/03/20 05:49:59;;;;;;;10.95;2.53;;;3.70;99.90;;;;;;5084186;28;20035;-69
2022/03/20 05:52:25;;;;;;;13.57;2.50;;;3.70;99.90;;;;;;5082683;28;20056;-70
2022/03/20 05:54:51;;;;;;;7.32;2.13;;;3.70;99.90;;;;;;5083772;28;20070;-71
2022/03/20 06:00:04;;;;;;;12.50;2.65;;;3.60;99.90;;;;;;5083461;28;20035;-69
2022/03/20 06:02:29;;;;;;;12.65;2.47;;;3.60;99.90;;;;;;5083038;28;20027;-69
2022/03/20 06:04:55;;;;;;;13.25;2.78;;;3.60;99.90;;;;;;5082980;28;20335;-70
2022/03/20 06:07:21;;;;;;;12.32;2.90;;;3.60;99.90;;;;;;5083288;28;20032;-69
2022/03/20 06:09:46;;;;;;;10.05;2.80;;;3.50;99.90;;;;;;5084202;28;20032;-71
2022/03/20 06:12:12;;;;;;;10.75;2.72;;;3.50;99.90;;;;;;5091204;28;20096;-70
2022/03/20 06:14:38;;;;;;;10.52;2.42;;;3.60;99.90;;;;;;5061746;28;20020;-70
2022/03/20 06:17:05;;;;;;;9.63;2.47;;;3.50;99.90;;;;;;5064598;28;20173;-71
2022/03/20 06:19:31;;;;;;;9.05;2.53;;;3.50;99.90;;;;;;5062791;28;20381;-69
2022/03/20 06:21:57;;;;;;;12.98;2.88;;;3.50;99.90;;;;;;5063720;28;20016;-69
2022/03/20 06:24:23;;;;;;;13.52;2.80;;;3.50;99.90;;;;;;5062420;28;20029;-70
2022/03/20 06:26:48;;;;;;;15.18;2.53;;;3.50;99.90;;;;;;5063615;28;20024;-70
2022/03/20 06:29:14;;;;;;;10.52;2.60;;;3.60;99.90;;;;;;5062325;28;20017;-70
2022/03/20 06:31:40;;;;;;;10.05;2.35;;;3.60;99.90;;;;;;5045639;28;20121;-70
2022/03/20 06:34:05;;;;;;;12.52;2.75;;;3.60;99.90;;;;;;5062407;28;20300;-70
2022/03/20 06:36:31;;;;;;;12.32;2.88;;;3.60;99.90;;;;;;5045470;28;20075;-69
2022/03/20 06:38:57;;;;;;;9.20;2.38;;;3.60;99.90;;;;;;5063286;28;20323;-70
2022/03/20 06:41:23;;;;;;;9.73;2.88;;;3.60;99.90;;;;;;5063569;28;20025;-69
2022/03/20 06:43:49;;;;;;;11.68;2.67;;;3.60;99.90;;;;;;5062021;28;20028;-71
2022/03/20 06:46:15;;;;;;;8.65;2.20;;;3.70;99.90;;;;;;5045553;28;20017;-71
2022/03/20 06:48:40;;;;;;;9.70;2.70;;;3.70;99.90;;;;;;5062602;28;20025;-71
2022/03/20 06:51:06;;;;;;;16.45;3.03;;;3.70;99.90;;;;;;5061572;28;20060;-71
2022/03/20 06:53:33;;;;;;;15.70;2.88;;;3.70;99.90;;;;;;5063401;28;20025;-70
2022/03/20 06:56:00;;;;;;;11.45;2.63;;;3.80;99.90;;;;;;5063137;28;20028;-70
2022/03/20 06:58:27;;;;;;;12.68;2.88;;;3.80;99.90;;;;;;5063165;28;20048;-70
2022/03/20 07:00:53;;;;;;;11.63;2.95;;;4.00;99.90;;;;;;5062453;28;20377;-70
2022/03/20 07:03:20;;;;;;;12.23;2.75;;;4.10;99.90;;;;;;5062259;28;20300;-70
2022/03/20 07:05:46;;;;;;;13.07;2.78;;;4.10;99.90;;;;;;5061808;28;20263;-70
2022/03/20 07:08:12;;;;;;;14.13;2.47;;;4.10;99.90;;;;;;5063355;28;20033;-70
2022/03/20 07:10:38;;;;;;;12.55;3.20;;;4.10;99.90;;;;;;5062163;28;20253;-71
2022/03/20 07:15:53;;;;;;;15.60;2.70;;;4.20;99.90;;;;;;5096355;28;20023;-69
2022/03/20 07:18:20;;;;;;;9.93;2.70;;;4.20;99.90;;;;;;5082328;28;20314;-70
2022/03/20 07:20:47;;;;;;;17.73;3.53;;;4.20;99.90;;;;;;5082168;28;20029;-69
2022/03/20 07:23:14;;;;;;;16.83;3.33;;;4.30;99.90;;;;;;5065194;28;20326;-70
2022/03/20 07:31:13;;;;;;;11.57;2.92;;;4.40;99.90;;;;;;5086299;28;20025;-69
2022/03/20 07:33:40;;;;;;;13.88;2.65;;;4.40;99.90;;;;;;5085775;28;20024;-71
2022/03/20 07:36:07;;;;;;;13.25;3.55;;;4.40;99.90;;;;;;5086874;28;20028;-70
2022/03/20 07:38:35;;;;;;;6.93;2.67;;;4.40;99.90;;;;;;5087052;28;20032;-69
2022/03/20 07:41:01;;;;;;;16.77;3.28;;;4.40;99.90;;;;;;5069526;28;20028;-69
2022/03/20 07:43:27;;;;;;;13.77;3.50;;;4.50;99.90;;;;;;5085574;28;20371;-70
2022/03/20 07:45:52;;;;;;;13.63;3.47;;;4.60;99.90;;;;;;5102197;28;20079;-70
2022/03/20 07:48:21;;;;;;;14.57;3.47;;;4.70;99.90;;;;;;5085860;28;20028;-70
2022/03/20 07:50:47;;;;;;;14.65;4.18;;;4.70;99.90;;;;;;5085217;28;20056;-69
2022/03/20 07:53:13;;;;;;;15.82;3.45;;;4.80;99.90;;;;;;5085932;28;20027;-70
2022/03/20 07:55:39;;;;;;;13.68;3.17;;;4.90;99.70;;;;;;5086145;28;20028;-69
2022/03/20 07:58:05;;;;;;;13.68;2.45;;;5.00;99.60;;;;;;5086428;28;20093;-68
2022/03/20 08:00:30;;;;;;;11.32;3.28;;;5.10;99.00;;;;;;5085193;28;20047;-69
2022/03/20 08:02:56;;;;;;;13.35;3.08;;;5.20;98.70;;;;;;5086244;28;20035;-69
2022/03/20 08:05:24;;;;;;;10.68;2.42;;;5.30;98.70;;;;;;5085873;28;20033;-70
2022/03/20 08:07:50;;;;;;;10.40;2.80;;;5.30;98.40;;;;;;5086383;28;20024;-71
2022/03/20 08:10:16;;;;;;;11.40;2.65;;;5.40;98.10;;;;;;5086313;28;20219;-69
2022/03/20 08:12:41;;;;;;;9.45;2.90;;;5.50;97.80;;;;;;5072508;28;20028;-71
2022/03/20 08:15:07;;;;;;;8.77;3.35;;;5.60;97.70;;;;;;5064366;28;20407;-69
2022/03/20 08:17:50;;;;;;;10.43;2.85;;;5.70;97.60;;;;;;5066322;28;20021;-70
2022/03/20 08:20:16;;;;;;;11.30;2.97;;;5.80;97.30;;;;;;5066200;28;20021;-70
2022/03/20 08:22:42;;;;;;;8.63;2.40;;;5.90;97.00;;;;;;5065079;28;20051;-70
2022/03/20 08:25:10;;;;;;;8.32;2.85;;;6.00;96.50;;;;;;5064556;28;20021;-71
2022/03/20 08:27:48;;;;;;;5.88;2.47;;;6.10;96.10;;;;;;5065865;28;20013;-71
2022/03/20 08:30:15;;;;;;;9.95;2.78;;;6.20;96.10;;;;;;5064709;28;20055;-69
2022/03/20 08:32:42;;;;;;;10.48;3.15;;;6.30;96.10;;;;;;5047168;28;20033;-71
2022/03/20 08:35:09;;;;;;;6.38;2.47;;;6.40;95.70;;;;;;5047372;28;20342;-69
2022/03/20 08:37:35;;;;;;;11.00;2.70;;;6.50;95.20;;;;;;5063160;28;20096;-69
2022/03/20 08:40:03;;;;;;;8.10;2.67;;;6.60;95.10;;;;;;5064962;28;20037;-69
2022/03/20 08:42:29;;;;;;;10.43;2.97;;;6.70;94.80;;;;;;5064435;28;20028;-70
2022/03/20 08:44:55;;;;;;;7.55;2.65;;;6.80;94.20;;;;;;5065453;28;20100;-69
2022/03/20 08:47:20;;;;;;;11.48;2.72;;;7.00;93.90;;;;;;5064735;28;20047;-69
2022/03/20 08:49:46;;;;;;;8.57;2.90;;;7.10;93.80;;;;;;5047929;28;20017;-70
2022/03/20 08:52:12;;;;;;;10.75;2.92;;;7.10;93.70;;;;;;5063528;28;20307;-69
2022/03/20 08:54:37;;;;;;;11.93;3.28;;;7.20;93.50;;;;;;5065223;28;20040;-70
2022/03/20 08:57:06;;;;;;;6.60;2.60;;;7.30;93.30;;;;;;5064577;28;20028;-69
2022/03/20 08:59:32;;;;;;;9.57;2.80;;;7.40;93.40;;;;;;5065401;28;20017;-69
2022/03/20 09:01:58;;;;;;;8.48;3.00;;;7.60;93.20;;;;;;5064834;28;20324;-70
2022/03/20 09:04:23;;;;;;;10.43;3.47;;;7.70;93.30;;;;;;5064456;28;20030;-69
2022/03/20 09:06:50;;;;;;;10.90;2.97;;;7.80;92.60;;;;;;5065216;28;20024;-70
2022/03/20 09:09:16;;;;;;;11.90;2.83;;;7.80;92.80;;;;;;5065395;28;20013;-70
2022/03/20 09:11:43;;;;;;;11.60;3.10;;;7.90;92.80;;;;;;5068436;28;20052;-69
2022/03/20 09:14:09;;;;;;;10.88;3.00;;;7.90;92.50;;;;;;5085249;28;20043;-69
2022/03/20 09:19:20;;;;;;;7.07;3.10;;;8.00;92.70;;;;;;5084362;28;20009;-70
2022/03/20 09:21:46;;;;;;;9.20;3.47;;;8.10;92.40;;;;;;5100768;28;20031;-69
2022/03/20 09:24:11;;;;;;;8.43;3.20;;;8.20;91.80;;;;;;5084800;28;20047;-71
2022/03/20 09:26:37;;;;;;;9.02;2.92;;;8.20;92.00;;;;;;5083184;28;20082;-68
2022/03/20 09:29:04;;;;;;;9.95;3.15;;;8.30;91.80;;;;;;5084938;28;20013;-71
2022/03/20 09:31:31;;;;;;;13.40;2.95;;;8.40;91.50;;;;;;5084627;28;20020;-71
2022/03/20 09:33:58;;;;;;;11.75;3.65;;;8.40;91.50;;;;;;5084768;28;20023;-71
2022/03/20 09:36:23;;;;;;;8.13;3.38;;;8.40;91.20;;;;;;5084182;28;20020;-69
2022/03/20 09:38:50;;;;;;;9.27;3.40;;;8.50;91.10;;;;;;5083526;28;20017;-69
2022/03/20 09:41:16;;;;;;;8.65;3.13;;;8.50;91.50;;;;;;5084400;28;20040;-73
2022/03/20 09:43:44;;;;;;;12.90;3.05;;;8.50;91.80;;;;;;5084464;28;20026;-70
2022/03/20 09:46:10;;;;;;;9.40;3.15;;;8.60;91.80;;;;;;5083736;28;20017;-71
2022/03/20 09:48:36;;;;;;;12.55;3.70;;;8.70;91.20;;;;;;5084421;28;20028;-70
2022/03/20 09:51:04;;;;;;;8.68;3.22;;;8.90;91.00;;;;;;5084280;28;20056;-71
2022/03/20 09:53:30;;;;;;;7.30;3.58;;;8.90;90.90;;;;;;5082930;28;20027;-71
2022/03/20 09:55:57;;;;;;;10.80;3.65;;;8.90;90.60;;;;;;5083593;28;20028;-71
2022/03/20 09:58:26;;;;;;;12.15;4.15;;;8.90;90.60;;;;;;5066765;28;20090;-70
2022/03/20 10:00:53;;;;;;;8.98;3.33;;;9.00;90.80;;;;;;5082966;28;20035;-72
2022/03/20 10:03:22;;;;;;;14.75;3.75;;;9.10;90.70;;;;;;5083005;28;20083;-71
2022/03/20 10:06:15;;;;;;;7.75;3.67;;;9.20;89.80;;;;;;5082628;28;20021;-71
2022/03/20 10:09:02;;;;;;;10.35;3.90;;;9.20;90.20;;;;;;5083601;28;20024;-72
2022/03/20 10:11:28;;;;;;;9.68;3.60;;;9.40;88.30;;;;;;5067386;28;20078;-71
2022/03/20 10:14:16;;;;;;;10.32;3.70;;;9.60;88.50;;;;;;5064159;28;20067;-72
2022/03/20 10:16:48;;;;;;;12.70;3.80;;;9.70;88.10;;;;;;5049487;28;20025;-71
2022/03/20 10:19:30;;;;;;;10.68;4.13;;;9.80;88.10;;;;;;5064296;28;20027;-72
2022/03/20 10:21:58;;;;;;;8.13;3.58;;;9.90;87.20;;;;;;5046061;28;20109;-69
2022/03/20 10:24:27;;;;;;;10.73;4.05;;;10.00;87.00;;;;;;5062418;28;20211;-70
2022/03/20 10:27:05;;;;;;;10.20;4.03;;;10.00;86.60;;;;;;5059655;28;20037;-70
2022/03/20 10:29:33;;;;;;;12.85;4.53;;;10.00;86.50;;;;;;5063529;28;20331;-70
2022/03/20 10:32:06;;;;;;;9.68;4.30;;;10.10;84.10;;;;;;5061839;28;20051;-71
2022/03/20 10:34:53;;;;;;;8.95;4.55;;;10.10;83.50;;;;;;5061944;28;20020;-71
2022/03/20 10:37:21;;;;;;;9.00;3.80;;;10.20;81.40;;;;;;5062094;28;20107;-72
2022/03/20 10:39:47;;;;;;;8.95;3.97;;;10.10;82.60;;;;;;5045758;28;20366;-70
2022/03/20 10:42:15;;;;;;;9.82;4.15;;;10.20;82.40;;;;;;5062305;28;20032;-71
2022/03/20 10:44:41;;;;;;;6.47;3.92;;;10.20;82.20;;;;;;5063528;28;20024;-71
2022/03/20 10:47:12;;;;;;;10.10;4.10;;;10.30;81.20;;;;;;5028962;28;20095;-71
2022/03/20 10:49:39;;;;;;;11.40;4.03;;;10.40;81.70;;;;;;5062027;28;20365;-71
2022/03/20 10:52:09;;;;;;;7.18;3.85;;;10.40;80.00;;;;;;5061956;28;20119;-71
2022/03/20 10:54:44;;;;;;;12.15;4.10;;;10.50;79.60;;;;;;5063389;28;20020;-71
2022/03/20 10:57:12;;;;;;;10.57;4.10;;;10.40;80.60;;;;;;5063536;28;20020;-70
2022/03/20 10:59:39;;;;;;;11.15;4.25;;;10.40;80.40;;;;;;5029461;28;20051;-71
2022/03/20 11:02:18;;;;;;;10.60;4.50;;;10.40;79.30;;;;;;5062380;28;20049;-70
2022/03/20 11:04:44;;;;;;;8.85;4.25;;;10.50;79.20;;;;;;5061747;28;20023;-71
2022/03/20 11:07:16;;;;;;;9.27;4.65;;;10.60;78.50;;;;;;5063281;28;20028;-71
2022/03/20 11:09:57;;;;;;;7.00;4.20;;;10.50;79.20;;;;;;5063256;28;20024;-72
2022/03/20 11:12:26;;;;;;;9.07;4.20;;;10.70;78.60;;;;;;5071783;28;20024;-71
2022/03/20 11:14:54;;;;;;;7.18;4.00;;;10.80;77.50;;;;;;5082076;28;20028;-70
2022/03/20 11:17:24;;;;;;;8.50;4.50;;;10.90;76.30;;;;;;5082990;28;20070;-70
2022/03/20 11:19:54;;;;;;;7.60;4.30;;;11.00;76.10;;;;;;5082186;28;20052;-72
2022/03/20 11:22:21;;;;;;;8.82;4.07;;;11.00;73.30;;;;;;5081839;28;20020;-71
2022/03/20 11:24:52;;;;;;;9.88;3.95;;;11.00;74.50;;;;;;5082830;28;20023;-71
2022/03/20 11:27:26;;;;;;;9.35;4.50;;;11.00;73.80;;;;;;5081504;28;20020;-71
2022/03/20 11:29:59;;;;;;;7.38;4.10;;;11.00;74.30;;;;;;5081959;28;20021;-71
2022/03/20 11:32:25;;;;;;;10.07;4.90;;;11.10;74.60;;;;;;5081792;28;20040;-71
2022/03/20 11:34:52;;;;;;;7.78;4.75;;;11.10;74.70;;;;;;5082765;28;20032;-72
2022/03/20 11:37:18;;;;;;;7.88;4.07;;;11.10;73.90;;;;;;5081487;28;20051;-72
2022/03/20 11:40:22;;;;;;;10.07;4.97;;;11.10;74.60;;;;;;5082788;28;20024;-71
2022/03/20 11:42:49;;;;;;;12.35;5.32;;;11.20;75.60;;;;;;5070497;28;20100;-70
2022/03/20 11:45:20;;;;;;;12.25;5.63;;;11.30;76.20;;;;;;5048809;28;20047;-71
2022/03/20 11:47:51;;;;;;;9.73;5.00;;;11.30;76.40;;;;;;5081932;28;20035;-72
2022/03/20 11:50:47;;;;;;;12.98;6.07;;;11.40;76.60;;;;;;5065491;28;20244;-71
2022/03/20 11:53:25;;;;;;;10.40;5.30;;;11.40;76.60;;;;;;5098184;28;20112;-71
2022/03/20 11:55:51;;;;;;;10.93;5.30;;;11.50;75.70;;;;;;5082447;28;20092;-71
2022/03/20 11:58:37;;;;;;;12.13;5.70;;;11.40;75.80;;;;;;5082342;28;20036;-72
2022/03/20 12:01:06;;;;;;;10.60;5.63;;;11.40;77.70;;;;;;5067702;28;20079;-70
2022/03/20 12:03:55;;;;;;;11.43;5.88;;;11.40;76.90;;;;;;5065078;28;20024;-72
2022/03/20 12:06:47;;;;;;;13.43;6.47;;;11.50;76.80;;;;;;5084514;28;20032;-71
2022/03/20 12:09:32;;;;;;;;;;;11.50;76.60;;;;;;5085527;28;20259;-72
2022/03/20 12:12:33;;;;;;;8.07;5.55;;;11.50;75.10;;;;;;5075973;28;19901;-71
2022/03/20 12:15:08;;;;;;;10.63;6.25;;;11.50;75.50;;;;;;5065397;28;20048;-73
2022/03/20 12:18:08;;;;;;;13.65;6.70;;;11.50;75.90;;;;;;5066450;28;20037;-71
2022/03/20 12:21:00;;;;;;;12.25;6.75;;;11.50;76.60;;;;;;5065508;28;20088;-71
2022/03/20 12:23:43;;;;;;;11.57;6.80;;;11.70;75.90;;;;;;5049822;28;20065;-71
2022/03/20 12:26:31;;;;;;;13.98;6.47;;;11.70;76.30;;;;;;5064854;28;20029;-73
2022/03/20 12:29:33;;;;;;;11.38;6.20;;;11.80;75.40;;;;;;5063704;28;20033;-71
2022/03/20 12:32:01;;;;;;;12.40;6.57;;;11.80;74.40;;;;;;5053386;28;20024;-70
2022/03/20 12:34:29;;;;;;;12.77;6.88;;;11.90;74.70;;;;;;5047519;28;20117;-72
2022/03/20 12:36:55;;;;;;;12.82;7.10;;;11.90;74.60;;;;;;5064541;28;20083;-70
2022/03/20 12:40:00;;;;;;;14.60;6.43;;;12.00;74.20;;;;;;5064494;28;20195;-70
2022/03/20 12:42:26;;;;;;;12.40;6.53;;;12.00;73.50;;;;;;5053990;28;20032;-70
2022/03/20 12:44:52;;;;;;;12.65;6.53;;;11.90;72.70;;;;;;5064889;28;20040;-71
2022/03/20 12:47:20;;;;;;;13.80;6.07;;;12.00;72.30;;;;;;5065587;28;20115;-70
2022/03/20 12:49:51;;;;;;;16.80;6.80;;;12.10;71.20;;;;;;5064683;28;20029;-71
2022/03/20 12:52:18;;;;;;;11.07;5.70;;;12.00;72.40;;;;;;5064311;28;20041;-72
2022/03/20 12:54:53;;;;;;;10.25;5.90;;;12.20;73.30;;;;;;5064341;28;20039;-71
2022/03/20 12:57:19;;;;;;;10.43;6.00;;;12.20;72.00;;;;;;5063993;28;20307;-71
2022/03/20 12:59:44;;;;;;;10.13;6.20;;;12.20;72.40;;;;;;5065245;28;20028;-71
2022/03/20 13:02:10;;;;;;;12.70;6.35;;;12.30;73.90;;;;;;5065052;28;20017;-73
2022/03/20 13:04:36;;;;;;;12.00;6.22;;;12.30;73.30;;;;;;5065286;28;20017;-73
2022/03/20 13:07:23;;;;;;;14.43;5.78;;;12.10;72.80;;;;;;5064346;28;20051;-71
2022/03/20 13:09:57;;;;;;;13.70;6.07;;;12.10;72.40;;;;;;5063356;28;20189;-72
2022/03/20 13:12:23;;;;;;;8.95;5.88;;;12.20;72.10;;;;;;5073927;28;20216;-70
2022/03/20 13:14:51;;;;;;;14.40;5.63;;;12.20;71.10;;;;;;5083659;28;20020;-71
2022/03/20 13:17:25;;;;;;;10.57;5.68;;;12.20;72.20;;;;;;5083982;28;20033;-70
2022/03/20 13:19:51;;;;;;;13.02;6.07;;;12.10;71.90;;;;;;5085233;28;20033;-71
2022/03/20 13:22:18;;;;;;;11.00;5.95;;;12.10;72.00;;;;;;5084864;28;20215;-72
2022/03/20 13:24:46;;;;;;;10.98;6.05;;;12.00;73.10;;;;;;5084597;28;20031;-73
2022/03/20 13:27:12;;;;;;;13.98;6.00;;;12.00;73.60;;;;;;5084926;28;20016;-72